Time;durP1;ratioP1;P1;durP2;ratioP2;P2;SDS_P1;SDS_P2;PMS_P1;PMS_P2;Temp;Humidity;BMP_temperature;BMP_pressure;BME280_temperature;BME280_humidity;BME280_pressure;Samples;Min_cycle;Max_cycle;Signal;HPM_P1;HPM_P2
2021/11/20 00:01:11;;;;;;;2.45;1.77;;;;;;;7.74;61.43;97194.16;3425817;28;20043;-71
2021/11/20 00:02:52;;;;;;;2.17;1.75;;;;;;;7.73;61.45;97192.56;3427277;28;20560;-72
2021/11/20 00:04:33;;;;;;;2.70;1.80;;;;;;;7.70;61.32;97177.94;3413953;28;20050;-72
2021/11/20 00:06:18;;;;;;;2.67;1.83;;;;;;;7.68;61.39;97169.41;3425588;28;20051;-72
2021/11/20 00:08:00;;;;;;;2.38;1.70;;;;;;;7.68;61.33;97169.41;3422456;28;20042;-72
2021/11/20 00:09:41;;;;;;;2.40;1.73;;;;;;;7.63;61.24;97161.34;3414873;28;20043;-73
2021/11/20 00:11:23;;;;;;;1.85;1.60;;;;;;;7.62;61.36;97154.47;3387673;29;20044;-72
2021/11/20 00:13:08;;;;;;;2.05;1.83;;;;;;;7.62;61.19;97147.31;3409621;28;20146;-72
2021/11/20 00:14:49;;;;;;;2.30;1.38;;;;;;;7.60;61.57;97145.94;3413871;28;20054;-73
2021/11/20 00:16:31;;;;;;;4.32;1.80;;;;;;;7.57;61.28;97141.91;3400791;29;20063;-73
2021/11/20 00:18:12;;;;;;;3.00;1.98;;;;;;;7.54;61.38;97134.44;3421090;28;20031;-73
2021/11/20 00:19:53;;;;;;;7.05;1.95;;;;;;;7.53;61.45;97124.06;3428184;28;20042;-74
2021/11/20 00:21:53;;;;;;;1.85;1.67;;;;;;;7.51;61.26;97118.19;3428104;28;20042;-74
2021/11/20 00:23:38;;;;;;;2.35;1.45;;;;;;;7.47;61.47;97115.22;3427043;28;20046;-72
2021/11/20 00:25:23;;;;;;;1.65;1.55;;;;;;;7.46;61.46;97099.56;3427829;28;20048;-72
2021/11/20 00:27:08;;;;;;;2.00;1.45;;;;;;;7.47;61.37;97098.53;3413972;28;20138;-72
2021/11/20 00:30:51;;;;;;;1.42;1.33;;;;;;;7.47;61.68;97082.63;3413835;28;20133;-70
2021/11/20 00:32:34;;;;;;;3.70;1.55;;;;;;;7.50;61.83;97068.91;3412114;28;20142;-70
2021/11/20 00:34:27;;;;;;;2.83;1.83;;;;;;;7.53;61.60;97071.06;3425169;28;20042;-72
2021/11/20 00:36:09;;;;;;;2.80;1.38;;;;;;;7.49;61.60;97064.66;3400354;29;20064;-72
2021/11/20 00:37:50;;;;;;;3.05;1.88;;;;;;;7.46;61.45;97054.50;3422280;28;20043;-71
2021/11/20 00:39:33;;;;;;;2.60;1.40;;;;;;;7.49;61.74;97048.75;3427394;28;20047;-72
2021/11/20 00:41:15;;;;;;;;;;;;;;;7.64;61.49;97041.03;3428749;28;20452;-71
2021/11/20 00:42:58;;;;;;;4.10;1.30;;;;;;;7.55;61.13;97037.97;3427908;28;19922;-71
2021/11/20 00:44:39;;;;;;;2.92;1.63;;;;;;;7.50;61.30;97021.19;3428080;28;20082;-71
2021/11/20 00:46:22;;;;;;;1.70;1.60;;;;;;;7.46;61.44;97012.09;3414037;28;20872;-71
2021/11/20 00:48:05;;;;;;;1.67;0.90;;;;;;;7.45;61.45;97010.50;3411410;29;20047;-71
2021/11/20 00:49:46;;;;;;;1.38;1.10;;;;;;;7.45;61.67;96999.91;3411127;28;20538;-72
2021/11/20 00:51:28;;;;;;;1.08;1.00;;;;;;;7.41;61.48;96984.50;3400503;29;20427;-71
2021/11/20 00:53:10;;;;;;;2.72;1.17;;;;;;;7.39;61.40;96986.59;3415598;28;20118;-71
2021/11/20 00:54:50;;;;;;;2.00;1.63;;;;;;;7.30;61.46;96977.41;3403211;29;20043;-70
2021/11/20 00:56:32;;;;;;;2.55;1.55;;;;;;;7.26;61.68;96971.00;3413622;28;20053;-71
2021/11/20 00:58:12;;;;;;;1.50;1.38;;;;;;;7.23;61.67;96968.84;3419408;28;20054;-70
2021/11/20 00:59:53;;;;;;;2.40;1.58;;;;;;;7.29;61.88;96962.56;3430618;28;20043;-71
2021/11/20 01:01:39;;;;;;;1.25;1.10;;;;;;;7.39;61.74;96960.09;3416316;28;20130;-70
2021/11/20 01:03:21;;;;;;;1.17;0.95;;;;;;;7.42;61.64;96949.00;3427730;28;20047;-71
2021/11/20 01:05:04;;;;;;;1.15;1.00;;;;;;;7.48;61.77;96947.22;3418735;28;20043;-71
2021/11/20 01:06:45;;;;;;;2.25;1.15;;;;;;;7.49;61.46;96932.16;3413917;28;20058;-70
2021/11/20 01:08:29;;;;;;;1.67;1.58;;;;;;;7.48;61.35;96933.19;3413793;28;20039;-71
2021/11/20 01:10:12;;;;;;;1.73;1.48;;;;;;;7.45;61.28;96923.06;3427381;28;20043;-71
2021/11/20 01:12:06;;;;;;;1.02;0.95;;;;;;;7.37;61.25;96914.47;3429099;28;20038;-71
2021/11/20 01:13:49;;;;;;;2.95;1.52;;;;;;;7.30;61.33;96907.72;3416255;28;20063;-71
2021/11/20 01:15:37;;;;;;;2.90;1.20;;;;;;;7.28;61.56;96900.06;3413819;28;20047;-72
2021/11/20 01:17:20;;;;;;;1.70;1.60;;;;;;;7.28;61.45;96889.44;3414515;28;20051;-71
2021/11/20 01:19:04;;;;;;;3.45;2.08;;;;;;;7.29;61.40;96892.91;3404080;28;20035;-71
2021/11/20 01:21:06;;;;;;;1.48;1.30;;;;;;;7.26;61.39;96888.88;3412302;28;20088;-72
2021/11/20 01:22:46;;;;;;;1.48;1.38;;;;;;;7.24;61.40;96875.06;3416068;28;20088;-72
2021/11/20 01:24:49;;;;;;;1.10;0.82;;;;;;;7.22;61.27;96870.00;3406761;28;20067;-71
2021/11/20 01:26:37;;;;;;;1.52;1.13;;;;;;;7.21;61.29;96862.31;3403088;28;20138;-72
2021/11/20 01:28:19;;;;;;;2.83;1.45;;;;;;;7.18;61.29;96857.50;3413919;28;20043;-72
2021/11/20 01:30:10;;;;;;;0.82;0.82;;;;;;;7.15;61.27;96842.09;3403806;29;20059;-72
2021/11/20 01:31:52;;;;;;;1.25;1.10;;;;;;;7.22;61.31;96837.44;3415762;28;20083;-72
2021/11/20 01:33:35;;;;;;;2.45;1.38;;;;;;;7.25;61.28;96842.22;3417151;28;20039;-70
2021/11/20 01:35:16;;;;;;;1.23;1.13;;;;;;;7.29;61.52;96822.16;3402799;29;20126;-71
2021/11/20 01:37:14;;;;;;;1.85;1.20;;;;;;;7.38;61.22;96815.41;3414837;28;20047;-71
2021/11/20 01:39:05;;;;;;;2.97;1.20;;;;;;;7.36;61.17;96812.22;3414284;28;20039;-71
2021/11/20 01:40:50;;;;;;;1.13;0.82;;;;;;;7.37;61.02;96808.50;3416817;28;20061;-71
2021/11/20 01:43:00;;;;;;;2.08;0.82;;;;;;;7.46;61.18;96789.53;3405837;29;20498;-72
2021/11/20 01:44:51;;;;;;;1.15;1.05;;;;;;;7.54;60.88;96781.16;3402980;28;20147;-72
2021/11/20 01:46:37;;;;;;;1.02;0.70;;;;;;;7.59;60.74;96776.72;3414949;28;20519;-71
2021/11/20 01:48:54;;;;;;;0.88;0.88;;;;;;;7.66;60.68;96765.91;3402654;29;20107;-71
2021/11/20 01:50:41;;;;;;;6.45;1.02;;;;;;;7.65;60.68;96765.13;3429215;28;20049;-71
2021/11/20 01:52:50;;;;;;;1.23;0.77;;;;;;;7.66;60.58;96757.97;3417505;28;20047;-71
2021/11/20 01:54:59;;;;;;;1.45;0.93;;;;;;;7.69;60.40;96746.84;3402628;29;20062;-71
2021/11/20 01:57:20;;;;;;;1.35;0.88;;;;;;;7.74;60.59;96732.88;3429066;28;20078;-71
2021/11/20 01:59:13;;;;;;;3.00;0.80;;;;;;;7.74;60.44;96727.56;3413333;28;20215;-71
2021/11/20 02:01:21;;;;;;;2.25;0.95;;;;;;;7.69;60.35;96717.69;3415896;28;20058;-71
2021/11/20 02:03:27;;;;;;;1.02;0.90;;;;;;;7.75;60.66;96711.41;3415398;28;20534;-70
2021/11/20 02:05:27;;;;;;;1.30;0.90;;;;;;;7.80;60.59;96708.81;3402464;29;20050;-71
2021/11/20 02:07:30;;;;;;;0.82;0.80;;;;;;;7.86;60.12;96699.84;3402347;29;20631;-71
2021/11/20 02:09:20;;;;;;;0.73;0.65;;;;;;;7.81;59.91;96681.25;3417457;28;20043;-71
2021/11/20 02:11:48;;;;;;;3.22;1.00;;;;;;;7.82;60.39;96682.03;3389429;29;20074;-72
2021/11/20 02:13:31;;;;;;;1.60;0.98;;;;;;;7.70;60.18;96674.25;3388890;29;20139;-71
2021/11/20 02:15:18;;;;;;;0.93;0.85;;;;;;;7.60;60.22;96664.34;3398145;28;20136;-72
2021/11/20 02:17:06;;;;;;;1.08;0.80;;;;;;;7.52;60.25;96658.69;3402427;28;20043;-72
2021/11/20 02:18:55;;;;;;;1.50;1.35;;;;;;;7.45;60.58;96656.25;3401024;29;20542;-72
2021/11/20 02:20:44;;;;;;;2.50;0.98;;;;;;;7.40;60.55;96638.44;3421068;28;20047;-72
2021/11/20 02:22:38;;;;;;;0.93;0.70;;;;;;;7.44;60.57;96641.41;3402075;29;20530;-71
2021/11/20 02:24:22;;;;;;;1.63;1.23;;;;;;;7.47;60.65;96632.16;3413302;29;20082;-72
2021/11/20 02:26:26;;;;;;;1.77;0.98;;;;;;;7.46;60.60;96631.38;3414293;28;20034;-71
2021/11/20 02:28:09;;;;;;;1.17;0.60;;;;;;;7.48;60.71;96626.59;3431167;28;20027;-71
2021/11/20 02:29:49;;;;;;;2.05;0.80;;;;;;;7.51;60.45;96617.34;3416843;29;20040;-70
2021/11/20 02:31:54;;;;;;;0.98;0.75;;;;;;;7.53;60.37;96607.28;3432039;28;20059;-71
2021/11/20 02:33:48;;;;;;;0.85;0.70;;;;;;;7.51;60.30;96593.50;3427951;28;20055;-73
2021/11/20 02:35:36;;;;;;;2.50;1.00;;;;;;;7.49;60.38;96593.75;3420983;28;20414;-71
2021/11/20 02:37:19;;;;;;;0.95;0.70;;;;;;;7.55;60.40;96581.34;3427429;28;20564;-72
2021/11/20 02:39:07;;;;;;;2.03;0.93;;;;;;;7.59;60.22;96583.25;3428222;28;20077;-73
2021/11/20 02:40:48;;;;;;;0.77;0.77;;;;;;;7.62;60.42;96577.44;3415399;28;20039;-71
2021/11/20 02:42:30;;;;;;;1.52;0.70;;;;;;;7.73;60.41;96570.38;3412481;28;20047;-72
2021/11/20 02:44:37;;;;;;;2.65;0.82;;;;;;;7.92;60.52;96569.97;3415166;28;20126;-74
2021/11/20 02:46:21;;;;;;;0.90;0.80;;;;;;;7.99;59.70;96560.75;3412650;28;20058;-71
2021/11/20 02:48:02;;;;;;;2.92;0.80;;;;;;;8.02;59.67;96560.22;3412721;28;20146;-72
2021/11/20 02:49:52;;;;;;;3.17;0.63;;;;;;;8.04;59.68;96542.22;3413088;28;20047;-72
2021/11/20 02:51:36;;;;;;;;;;;;;;;8.18;59.59;96537.25;3427396;28;20133;-71
2021/11/20 02:53:39;;;;;;;0.73;0.73;;;;;;;8.18;59.31;96531.94;3415072;28;19980;-71
2021/11/20 02:55:19;;;;;;;;;;;;;;;8.21;59.38;96528.78;3415534;28;20453;-72
2021/11/20 02:57:10;;;;;;;0.60;0.60;;;;;;;8.14;58.91;96525.56;3414496;28;20017;-71
2021/11/20 02:58:52;;;;;;;2.03;0.60;;;;;;;8.09;58.92;96517.59;3400576;29;20051;-72
2021/11/20 03:00:38;;;;;;;0.70;0.60;;;;;;;8.04;59.01;96509.59;3424917;28;20043;-72
2021/11/20 03:02:20;;;;;;;1.42;0.90;;;;;;;7.98;58.99;96508.78;3414800;28;20039;-72
2021/11/20 03:04:05;;;;;;;1.83;0.70;;;;;;;7.90;58.83;96503.94;3412303;28;20051;-73
2021/11/20 03:05:45;;;;;;;0.60;0.60;;;;;;;7.81;59.17;96493.00;3414950;28;20538;-71
2021/11/20 03:07:26;;;;;;;0.63;0.63;;;;;;;7.75;58.97;96487.94;3411994;28;20050;-71
2021/11/20 03:09:09;;;;;;;0.80;0.65;;;;;;;7.67;58.91;96491.88;3411889;28;20043;-71
2021/11/20 03:10:50;;;;;;;0.85;0.80;;;;;;;7.61;59.25;96474.31;3425834;28;20045;-71
2021/11/20 03:12:31;;;;;;;0.95;0.63;;;;;;;7.55;59.41;96472.69;3414418;28;20053;-71
2021/11/20 03:14:14;;;;;;;0.60;0.60;;;;;;;7.50;59.32;96464.72;3401398;29;20126;-71
2021/11/20 03:16:02;;;;;;;0.70;0.68;;;;;;;7.43;59.51;96464.91;3399563;29;20049;-70
2021/11/20 03:17:43;;;;;;;1.10;0.80;;;;;;;7.36;59.49;96459.06;3412218;28;20070;-71
2021/11/20 03:19:31;;;;;;;0.65;0.65;;;;;;;7.30;59.65;96452.09;3414194;28;20548;-71
2021/11/20 03:21:13;;;;;;;0.65;0.60;;;;;;;7.24;59.64;96442.53;3401505;29;20075;-71
2021/11/20 03:23:02;;;;;;;1.15;0.70;;;;;;;7.24;59.71;96443.31;3402240;29;20075;-72
2021/11/20 03:24:43;;;;;;;2.28;0.60;;;;;;;7.20;59.68;96442.22;3402466;29;20047;-73
2021/11/20 03:26:24;;;;;;;0.70;0.70;;;;;;;7.20;59.67;96431.63;3401723;29;20122;-71
2021/11/20 03:28:05;;;;;;;1.52;0.90;;;;;;;7.17;59.73;96427.63;3398882;29;20142;-71
2021/11/20 03:29:46;;;;;;;0.68;0.65;;;;;;;7.15;59.83;96421.00;3398211;28;20044;-72
2021/11/20 03:31:27;;;;;;;1.10;1.00;;;;;;;7.12;59.80;96403.75;3398817;29;20044;-71
2021/11/20 03:33:08;;;;;;;0.93;0.80;;;;;;;7.13;59.91;96404.59;3401898;29;20074;-71
2021/11/20 03:34:49;;;;;;;0.60;0.60;;;;;;;7.15;59.81;96391.88;3414573;28;20047;-71
2021/11/20 03:36:35;;;;;;;0.75;0.65;;;;;;;7.16;59.95;96382.88;3400816;29;20040;-71
2021/11/20 03:38:18;;;;;;;1.63;1.08;;;;;;;7.19;59.79;96382.38;3399109;29;20154;-70
2021/11/20 03:40:00;;;;;;;0.90;0.80;;;;;;;7.18;59.88;96376.28;3408149;28;20035;-70
2021/11/20 03:41:42;;;;;;;1.00;0.73;;;;;;;7.16;59.86;96373.09;3401055;28;20135;-70
2021/11/20 03:43:23;;;;;;;0.60;0.60;;;;;;;7.11;59.84;96362.47;3411998;28;20303;-71
2021/11/20 03:45:08;;;;;;;1.10;0.70;;;;;;;7.10;59.91;96362.69;3414248;28;20053;-72
2021/11/20 03:46:49;;;;;;;0.80;0.80;;;;;;;7.09;59.87;96356.63;3401257;28;20075;-71
2021/11/20 03:48:30;;;;;;;0.70;0.70;;;;;;;7.09;59.88;96345.22;3411683;28;20051;-73
2021/11/20 03:50:14;;;;;;;0.77;0.77;;;;;;;7.08;59.77;96343.66;3398963;29;20039;-73
2021/11/20 03:51:54;;;;;;;0.70;0.70;;;;;;;7.05;59.91;96338.84;3411697;28;20043;-73
2021/11/20 03:53:37;;;;;;;0.70;0.70;;;;;;;6.95;59.80;96332.44;3414310;28;20482;-72
2021/11/20 03:55:22;;;;;;;0.50;0.50;;;;;;;6.91;60.11;96328.69;3401204;29;20058;-73
2021/11/20 03:57:04;;;;;;;0.75;0.75;;;;;;;6.88;60.16;96323.91;3413823;28;20039;-72
2021/11/20 03:58:46;;;;;;;0.73;0.60;;;;;;;6.84;60.20;96322.84;3401134;28;20078;-71
2021/11/20 04:00:32;;;;;;;0.90;0.75;;;;;;;6.81;60.47;96307.44;3411192;28;20043;-74
2021/11/20 04:02:14;;;;;;;0.77;0.77;;;;;;;6.80;60.44;96295.28;3414156;28;20055;-71
2021/11/20 04:03:54;;;;;;;1.42;0.85;;;;;;;6.83;60.68;96300.03;3401052;29;20055;-71
2021/11/20 04:05:36;;;;;;;0.70;0.50;;;;;;;6.90;60.68;96290.03;3411547;28;20047;-71
2021/11/20 04:07:17;;;;;;;0.90;0.70;;;;;;;6.98;60.66;96278.97;3400914;29;20519;-71
2021/11/20 04:09:03;;;;;;;1.40;0.85;;;;;;;7.03;60.48;96275.56;3411988;28;20039;-71
2021/11/20 04:10:45;;;;;;;1.88;0.88;;;;;;;7.08;60.29;96262.34;3413685;28;20078;-70
2021/11/20 04:12:26;;;;;;;0.63;0.63;;;;;;;7.09;60.20;96265.78;3413692;28;20442;-70
2021/11/20 04:14:06;;;;;;;0.50;0.50;;;;;;;7.06;60.21;96253.88;3425854;28;20069;-72
2021/11/20 04:15:48;;;;;;;1.30;0.90;;;;;;;7.07;60.27;96252.81;3414234;28;20051;-73
2021/11/20 04:17:29;;;;;;;1.40;0.85;;;;;;;7.10;60.35;96248.84;3424625;28;20585;-72
2021/11/20 04:19:10;;;;;;;0.85;0.60;;;;;;;7.10;60.19;96246.19;3427345;28;20066;-73
2021/11/20 04:20:50;;;;;;;0.90;0.90;;;;;;;7.12;60.24;96244.09;3400337;29;20071;-72
2021/11/20 04:22:31;;;;;;;1.90;1.23;;;;;;;7.10;60.02;96230.31;3401355;29;20047;-72
2021/11/20 04:24:13;;;;;;;0.82;0.50;;;;;;;7.08;60.29;96232.44;3413919;28;20514;-71
2021/11/20 04:26:19;;;;;;;0.63;0.63;;;;;;;7.08;60.24;96232.44;3396094;29;20166;-71
2021/11/20 04:28:00;;;;;;;1.13;0.70;;;;;;;7.04;60.10;96221.53;3399909;28;20045;-70
2021/11/20 04:29:50;;;;;;;1.67;1.58;;;;;;;6.98;60.25;96218.09;3401647;28;20419;-71
2021/11/20 04:31:31;;;;;;;1.25;0.80;;;;;;;6.98;60.51;96218.09;3408733;28;20049;-70
2021/11/20 04:33:13;;;;;;;2.42;0.95;;;;;;;7.01;60.32;96215.97;3413375;28;20047;-71
2021/11/20 04:34:54;;;;;;;1.17;0.90;;;;;;;7.00;60.28;96209.91;3400722;29;20043;-71
2021/11/20 04:36:35;;;;;;;0.68;0.68;;;;;;;7.01;60.25;96200.09;3401607;29;20060;-71
2021/11/20 04:38:16;;;;;;;0.93;0.70;;;;;;;6.99;60.20;96205.63;3413722;28;20054;-71
2021/11/20 04:39:58;;;;;;;0.93;0.93;;;;;;;6.98;60.37;96207.50;3413531;28;20043;-71
2021/11/20 04:41:39;;;;;;;2.13;0.80;;;;;;;6.97;60.27;96189.25;3421151;28;20535;-71
2021/11/20 04:43:19;;;;;;;0.85;0.70;;;;;;;6.94;60.35;96198.50;3427377;28;20039;-71
2021/11/20 04:45:01;;;;;;;1.02;0.77;;;;;;;6.93;60.48;96196.88;3413779;28;20087;-71
2021/11/20 04:46:41;;;;;;;1.25;1.15;;;;;;;6.88;60.48;96183.63;3411067;28;20042;-73
2021/11/20 04:48:22;;;;;;;1.40;0.93;;;;;;;6.85;60.47;96178.84;3411237;28;20123;-71
2021/11/20 04:50:17;;;;;;;1.10;0.70;;;;;;;6.83;60.69;96180.16;3412518;28;20547;-72
2021/11/20 04:51:57;;;;;;;1.20;0.80;;;;;;;6.84;60.66;96177.25;3411111;28;20098;-71
2021/11/20 04:53:41;;;;;;;1.85;0.93;;;;;;;6.84;60.89;96163.22;3399227;29;20134;-71
2021/11/20 04:55:23;;;;;;;1.92;1.02;;;;;;;6.85;60.75;96162.97;3419913;28;20030;-70
2021/11/20 04:57:06;;;;;;;1.58;0.85;;;;;;;6.91;60.71;96159.28;3413252;28;20519;-71
2021/11/20 04:58:47;;;;;;;1.80;1.02;;;;;;;7.03;60.91;96167.00;3411052;28;20113;-71
2021/11/20 05:00:38;;;;;;;1.10;0.90;;;;;;;7.10;60.69;96166.75;3413265;28;20594;-71
2021/11/20 05:02:19;;;;;;;1.23;0.70;;;;;;;7.07;60.49;96157.47;3406226;28;20079;-71
2021/11/20 05:04:01;;;;;;;2.47;0.70;;;;;;;7.04;60.51;96151.91;3400538;28;20036;-72
2021/11/20 05:05:45;;;;;;;2.05;1.15;;;;;;;7.01;60.52;96141.84;3398376;29;20052;-71
2021/11/20 05:07:30;;;;;;;1.35;1.10;;;;;;;7.03;60.47;96142.41;3411549;28;20054;-70
2021/11/20 05:09:10;;;;;;;0.98;0.77;;;;;;;7.06;60.57;96147.16;3404063;28;20039;-71
2021/11/20 05:10:59;;;;;;;3.53;1.00;;;;;;;7.06;60.42;96140.00;3413628;28;20451;-72
2021/11/20 05:12:43;;;;;;;0.90;0.80;;;;;;;7.04;60.60;96136.03;3425669;28;20050;-72
2021/11/20 05:14:39;;;;;;;1.10;0.80;;;;;;;7.01;60.50;96139.19;3427059;28;20519;-73
2021/11/20 05:16:20;;;;;;;2.30;1.27;;;;;;;6.94;60.66;96121.72;3413493;28;20082;-72
2021/11/20 05:18:02;;;;;;;2.85;1.35;;;;;;;6.94;60.53;96111.13;3411077;28;20047;-72
2021/11/20 05:20:05;;;;;;;1.25;0.90;;;;;;;6.92;60.62;96120.38;3400536;28;20043;-72
2021/11/20 05:21:46;;;;;;;1.58;1.05;;;;;;;6.93;60.77;96120.13;3408256;28;20106;-71
2021/11/20 05:23:32;;;;;;;3.55;1.08;;;;;;;6.91;60.73;96116.91;3424365;28;20046;-71
2021/11/20 05:25:14;;;;;;;1.00;0.90;;;;;;;6.89;60.70;96115.59;3413667;28;20079;-71
2021/11/20 05:26:55;;;;;;;1.15;0.90;;;;;;;6.86;60.61;96103.66;3411180;28;20062;-72
2021/11/20 05:28:38;;;;;;;2.85;1.27;;;;;;;6.84;60.76;96116.38;3411280;28;20051;-72
2021/11/20 05:30:30;;;;;;;1.55;1.00;;;;;;;6.81;60.84;96101.00;3410923;28;20042;-71
2021/11/20 05:32:11;;;;;;;1.77;1.23;;;;;;;6.79;60.88;96097.84;3409559;29;20047;-73
2021/11/20 05:33:58;;;;;;;2.17;0.90;;;;;;;6.75;60.99;96096.75;3411438;29;20521;-72
2021/11/20 05:35:39;;;;;;;0.85;0.75;;;;;;;6.75;61.08;96099.41;3414478;28;20044;-71
2021/11/20 05:37:20;;;;;;;1.83;0.90;;;;;;;6.73;61.04;96090.91;3427147;28;20559;-71
2021/11/20 05:39:03;;;;;;;1.10;0.70;;;;;;;6.72;61.07;96086.69;3418319;28;20050;-73
2021/11/20 05:40:44;;;;;;;3.70;1.30;;;;;;;6.69;61.10;96082.72;3415755;28;20093;-72
2021/11/20 05:42:25;;;;;;;2.38;1.40;;;;;;;6.69;61.20;96082.72;3413391;28;20044;-71
2021/11/20 05:44:12;;;;;;;1.48;1.30;;;;;;;6.68;61.20;96089.03;3400413;28;20047;-71
2021/11/20 05:46:12;;;;;;;;;;;;;;;6.80;60.93;96085.41;3416555;28;20046;-71
2021/11/20 05:47:53;;;;;;;2.58;0.90;;;;;;;6.71;60.94;96082.44;3413338;28;19918;-72
2021/11/20 05:49:38;;;;;;;2.75;0.93;;;;;;;6.66;61.11;96071.84;3426442;28;20450;-70
2021/11/20 05:51:23;;;;;;;1.70;1.00;;;;;;;6.64;61.33;96073.97;3415142;28;20039;-72
2021/11/20 05:53:10;;;;;;;5.97;1.30;;;;;;;6.63;61.53;96072.34;3386961;29;20419;-72
2021/11/20 05:54:51;;;;;;;1.67;1.13;;;;;;;6.63;61.44;96062.56;3410445;28;20050;-72
2021/11/20 05:56:40;;;;;;;2.55;1.10;;;;;;;6.63;61.48;96064.41;3414721;28;20047;-71
2021/11/20 05:58:25;;;;;;;2.25;0.90;;;;;;;6.65;61.59;96057.03;3415163;28;20047;-72
2021/11/20 06:00:17;;;;;;;4.78;1.30;;;;;;;6.65;61.92;96055.16;3420391;28;20052;-72
2021/11/20 06:02:04;;;;;;;2.35;1.10;;;;;;;6.68;61.50;96053.84;3406013;28;20051;-72
2021/11/20 06:03:52;;;;;;;1.48;1.00;;;;;;;6.66;61.66;96051.47;3403853;28;20066;-71
2021/11/20 06:05:33;;;;;;;1.27;1.05;;;;;;;6.68;61.60;96048.56;3404372;28;20515;-72
2021/11/20 06:07:15;;;;;;;1.77;1.52;;;;;;;6.69;61.55;96050.97;3405408;29;20433;-72
2021/11/20 06:08:58;;;;;;;2.38;1.33;;;;;;;6.68;61.87;96043.28;3404535;29;20135;-71
2021/11/20 06:10:40;;;;;;;2.70;1.30;;;;;;;6.69;61.84;96042.22;3416099;28;20478;-71
2021/11/20 06:12:20;;;;;;;1.75;1.42;;;;;;;6.70;61.79;96041.97;3416609;28;20138;-72
2021/11/20 06:14:03;;;;;;;1.58;1.48;;;;;;;6.70;61.78;96041.16;3414056;28;20503;-72
2021/11/20 06:15:53;;;;;;;5.97;1.67;;;;;;;6.71;61.77;96042.75;3390628;29;20040;-72
2021/11/20 06:17:34;;;;;;;1.67;1.40;;;;;;;6.71;61.70;96038.28;3414091;28;20043;-73
2021/11/20 06:19:15;;;;;;;2.28;1.25;;;;;;;6.69;61.92;96031.66;3404977;29;20039;-74
2021/11/20 06:20:57;;;;;;;1.63;1.35;;;;;;;6.72;61.53;96044.34;3394604;29;20476;-73
2021/11/20 06:22:38;;;;;;;3.45;1.70;;;;;;;6.71;61.74;96040.09;3404439;28;20055;-72
2021/11/20 06:24:19;;;;;;;3.97;1.00;;;;;;;6.69;62.04;96035.09;3405824;28;20054;-74
2021/11/20 06:26:00;;;;;;;4.70;1.45;;;;;;;6.68;62.06;96033.47;3389970;29;20046;-71
2021/11/20 06:27:42;;;;;;;1.50;1.40;;;;;;;6.70;61.97;96035.88;3384474;29;20554;-71
2021/11/20 06:29:27;;;;;;;3.13;1.77;;;;;;;6.69;62.10;96029.00;3413062;28;20145;-72
2021/11/20 06:31:17;;;;;;;2.25;1.30;;;;;;;6.68;62.27;96024.75;3414015;28;20415;-71
2021/11/20 06:33:05;;;;;;;2.78;1.17;;;;;;;6.67;62.20;96021.31;3402006;29;20127;-72
2021/11/20 06:35:07;;;;;;;2.60;1.42;;;;;;;6.70;62.26;96020.00;3402814;29;20419;-71
2021/11/20 06:36:56;;;;;;;4.20;1.85;;;;;;;6.70;62.45;96020.00;3414995;28;20059;-72
2021/11/20 06:38:51;;;;;;;1.63;1.20;;;;;;;6.72;62.21;96025.84;3415096;28;20138;-72
2021/11/20 06:40:43;;;;;;;2.67;1.40;;;;;;;6.74;62.65;96015.78;3401640;29;20051;-72
2021/11/20 06:42:28;;;;;;;2.47;1.98;;;;;;;6.72;62.33;96023.19;3413574;28;20126;-73
2021/11/20 06:44:09;;;;;;;2.28;1.48;;;;;;;6.72;62.25;96015.25;3404996;28;20048;-71
2021/11/20 06:45:53;;;;;;;2.65;1.83;;;;;;;6.71;62.59;96011.81;3415381;28;20063;-72
2021/11/20 06:47:33;;;;;;;2.15;1.58;;;;;;;6.74;62.18;96021.09;3403841;28;20156;-71
2021/11/20 06:49:15;;;;;;;2.63;1.70;;;;;;;6.73;62.31;96009.69;3415068;28;20046;-72
2021/11/20 06:51:02;;;;;;;4.25;1.80;;;;;;;6.72;62.70;96008.09;3400790;29;20051;-75
2021/11/20 06:52:55;;;;;;;2.83;1.63;;;;;;;6.73;62.20;96014.19;3400640;28;20086;-72
2021/11/20 06:54:54;;;;;;;3.53;1.38;;;;;;;6.75;62.43;96010.22;3389467;29;20518;-71
2021/11/20 06:57:05;;;;;;;1.30;1.20;;;;;;;6.77;62.37;96009.97;3390920;29;20419;-72
2021/11/20 07:01:37;;;;;;;3.40;2.03;;;;;;;6.81;62.37;96010.22;3401820;29;20059;-72
2021/11/20 07:03:22;;;;;;;3.78;1.75;;;;;;;6.79;62.50;96007.88;3402403;29;20044;-72
2021/11/20 07:05:13;;;;;;;2.40;1.50;;;;;;;6.81;62.64;96005.72;3401645;29;20046;-72
2021/11/20 07:07:05;;;;;;;1.30;1.20;;;;;;;6.80;62.85;96003.34;3402596;29;20059;-72
2021/11/20 07:08:46;;;;;;;;;;;;;;;6.90;62.44;96009.47;3403235;29;20054;-71
2021/11/20 07:10:27;;;;;;;1.67;1.05;;;;;;;6.83;62.50;96000.97;3413804;28;19914;-72
2021/11/20 07:12:08;;;;;;;4.00;1.20;;;;;;;6.83;62.58;96000.19;3401248;28;20038;-72
2021/11/20 07:13:50;;;;;;;2.83;1.40;;;;;;;6.83;62.72;96005.47;3388543;29;20304;-71
2021/11/20 07:15:32;;;;;;;2.15;1.55;;;;;;;6.87;62.84;95999.41;3395169;29;20138;-72
2021/11/20 07:17:13;;;;;;;6.50;2.50;;;;;;;6.93;62.84;95995.69;3398704;29;20134;-73
2021/11/20 07:19:07;;;;;;;5.30;2.15;;;;;;;7.02;62.82;96003.13;3400477;29;20127;-73
2021/11/20 07:20:57;;;;;;;6.82;1.92;;;;;;;7.05;62.87;95999.94;3402371;29;20048;-71
2021/11/20 07:22:54;;;;;;;7.85;2.47;;;;;;;7.12;63.02;96011.06;3401536;29;20042;-72
2021/11/20 07:24:34;;;;;;;8.30;2.20;;;;;;;7.20;62.69;96006.06;3414258;28;20043;-71
2021/11/20 07:26:15;;;;;;;6.28;2.92;;;;;;;7.30;62.80;96007.91;3399831;29;20408;-70
2021/11/20 07:27:58;;;;;;;5.43;1.63;;;;;;;7.42;62.91;96002.38;3385553;29;20052;-74
2021/11/20 07:29:39;;;;;;;4.07;1.45;;;;;;;7.51;62.76;96006.09;3408902;28;20045;-74
2021/11/20 07:31:20;;;;;;;4.28;1.52;;;;;;;7.57;62.48;96009.53;3406957;28;20455;-72
2021/11/20 07:33:01;;;;;;;6.30;1.48;;;;;;;7.60;62.49;96007.13;3405557;28;20119;-72
2021/11/20 07:34:42;;;;;;;7.72;2.35;;;;;;;7.70;62.41;96008.19;3401910;28;20036;-72
2021/11/20 07:36:23;;;;;;;2.55;1.15;;;;;;;7.78;62.37;96012.94;3401735;29;20380;-72
2021/11/20 07:38:05;;;;;;;10.18;1.60;;;;;;;7.83;61.88;96008.41;3400644;28;20135;-72
2021/11/20 07:39:46;;;;;;;6.53;1.50;;;;;;;7.86;62.18;96015.84;3398279;29;20043;-72
2021/11/20 07:41:28;;;;;;;7.03;1.55;;;;;;;7.89;61.79;96013.72;3384392;29;20070;-75
2021/11/20 07:43:15;;;;;;;6.32;1.75;;;;;;;7.91;61.61;96016.91;3384538;29;20519;-75
2021/11/20 07:45:15;;;;;;;5.00;1.55;;;;;;;7.94;61.63;96016.34;3388060;29;20078;-76
2021/11/20 07:47:13;;;;;;;4.95;1.95;;;;;;;7.95;61.36;96013.44;3395941;29;20464;-77
2021/11/20 07:48:56;;;;;;;9.15;1.73;;;;;;;7.98;61.29;96018.22;3398936;29;20040;-78
2021/11/20 07:50:38;;;;;;;5.65;1.73;;;;;;;8.00;61.64;96023.22;3400442;29;20531;-77
2021/11/20 07:52:24;;;;;;;6.07;2.35;;;;;;;8.07;61.52;96021.09;3399196;29;20035;-75
2021/11/20 07:54:05;;;;;;;6.82;3.97;;;;;;;8.12;61.46;96018.44;3400892;29;20083;-74
2021/11/20 07:55:50;;;;;;;5.03;2.58;;;;;;;8.15;61.31;96022.41;3411648;28;20498;-76
2021/11/20 07:57:31;;;;;;;5.10;2.95;;;;;;;8.15;61.12;96022.41;3403245;28;20052;-77
2021/11/20 07:59:17;;;;;;;6.30;2.33;;;;;;;8.14;61.25;96021.63;3399012;29;20043;-71
2021/11/20 08:00:58;;;;;;;8.27;2.05;;;;;;;8.14;61.15;96021.63;3411578;28;20074;-77
2021/11/20 08:02:41;;;;;;;6.70;2.80;;;;;;;8.15;61.11;96019.75;3400310;29;20050;-74
2021/11/20 08:04:21;;;;;;;10.85;3.47;;;;;;;8.20;61.13;96028.50;3393052;29;20130;-73
2021/11/20 08:06:26;;;;;;;6.88;1.90;;;;;;;8.24;61.11;96026.91;3389085;28;20158;-73
2021/11/20 08:08:13;;;;;;;17.95;2.08;;;;;;;8.30;61.05;96035.63;3397755;28;20035;-71
2021/11/20 08:10:00;;;;;;;3.53;2.08;;;;;;;8.35;60.94;96019.69;3413605;28;20391;-72
2021/11/20 08:11:45;;;;;;;5.50;2.13;;;;;;;8.44;60.85;96035.88;3411079;28;20086;-72
2021/11/20 08:13:26;;;;;;;2.55;1.85;;;;;;;8.51;61.04;96041.69;3418042;28;20070;-72
2021/11/20 08:15:10;;;;;;;4.13;1.20;;;;;;;8.57;60.69;96042.47;3428646;28;20035;-73
2021/11/20 08:17:30;;;;;;;2.95;1.20;;;;;;;8.63;60.71;96036.88;3413046;28;20511;-74
2021/11/20 08:19:18;;;;;;;5.20;1.70;;;;;;;8.70;60.37;96044.56;3399862;29;20111;-73
2021/11/20 08:21:14;;;;;;;12.13;1.63;;;;;;;8.83;60.26;96045.78;3412416;28;20055;-73
2021/11/20 08:23:35;;;;;;;9.77;1.40;;;;;;;8.90;60.08;96038.31;3408699;28;22068;-72
2021/11/20 08:25:22;;;;;;;5.05;2.65;;;;;;;8.98;59.97;96051.03;3411545;28;20424;-72
2021/11/20 08:27:09;;;;;;;2.88;1.38;;;;;;;9.09;60.06;96052.56;3414212;28;20398;-71
2021/11/20 08:29:18;;;;;;;3.45;1.00;;;;;;;9.19;59.48;96049.06;3419671;28;20052;-73
2021/11/20 08:31:01;;;;;;;2.70;1.00;;;;;;;9.18;59.29;96060.75;3414825;29;20139;-71
2021/11/20 08:32:44;;;;;;;2.85;1.25;;;;;;;9.17;59.11;96059.97;3411969;28;20071;-72